Historique des mesures à Cassis (13260), France
Quotidien Résumé Fevrier 2, 2017 Unités:  Métrique    US   Métrique/US
« Précédent (Jour)
Suivant (Jour) »
Quotidien Hebdomadaire Mensuel Annuel Période au choix
  Maximum: Minimum: Moyenne:
Température: TemperatureC °C 12.4 °C 13.3 °C
Point de rosée: DewpointC °C 8.4 °C 9.3 °C
Humidité: Humidity % 71 % 73 %
Vitesse du vent: 0 km/h 0 km/h 6.9 km/h
Rafales: 0 km/h - -
Vent:- - SE
Pression: PressurehPa hPa 1010.4 hPa -
Précipitations: 0.5 mm    
Historical Graphs
 
 
Mesures pour : Fevrier 2, 2017
Heure Temperature Point de rosée Pression Vent Vitesse du vent Rafales Humidité Pluie (par heure) Conditions
TemperatureC °C DewpointC °C PressurehPa hPa Calm     Humidity % HourlyPrecipMM mm SoftwareType W/m2
01:11 12.9 °C 8.7 °C 1015.1 hPa South 9.8 km/h 11.6 km/h 76 % 0.0 mm open2300-1.11 W/m2
02:10 12.8 °C 8.7 °C 1014.8 hPa Calm   8 km/h 76 % 0.0 mm open2300-1.11 W/m2
03:11 12.6 °C 8.4 °C 1014.8 hPa SE 7.6 km/h 7.6 km/h 76 % 0.0 mm open2300-1.11 W/m2
04:10 12.6 °C 8.4 °C 1014.1 hPa NE 2.3 km/h 2.3 km/h 76 % 0.0 mm open2300-1.11 W/m2
05:11 12.5 °C 8.6 °C 1014.1 hPa SE 5.1 km/h 5.1 km/h 77 % 0.0 mm open2300-1.11 W/m2
06:10 12.4 °C 8.4 °C 1013.8 hPa SE 5.1 km/h 7.6 km/h 77 % 0.0 mm open2300-1.11 W/m2
07:11 12.4 °C 8.4 °C 1013.4 hPa SE 6.9 km/h 22 km/h 77 % 0.0 mm open2300-1.11 W/m2
08:10 12.5 °C 8.6 °C 1013.1 hPa ESE 14 km/h 14 km/h 77 % 0.0 mm open2300-1.11 W/m2
09:11 12.9 °C 8.7 °C 1013.1 hPa Calm   16.9 km/h 76 % 0.0 mm open2300-1.11 W/m2
10:10 13.5 °C 9.3 °C 1013.1 hPa South 10.9 km/h 10.9 km/h 76 % 0.0 mm open2300-1.11 W/m2
11:11 14.3 °C 9.7 °C 1013.1 hPa ESE 5.1 km/h 16.9 km/h 74 % 0.0 mm open2300-1.11 W/m2
12:10 15.3 °C 10.5 °C 1012.4 hPa Calm   2.9 km/h 73 % 0.0 mm open2300-1.11 W/m2
13:11 15.9 °C 10.7 °C 1011.7 hPa SSE 30.1 km/h 30.1 km/h 71 % 0.0 mm open2300-1.11 W/m2
14:10 15.9 °C 10.7 °C 1011.1 hPa ESE 9.3 km/h 11.6 km/h 71 % 0.0 mm open2300-1.11 W/m2
15:11 15.6 °C 10.8 °C 1011.1 hPa ESE 6.4 km/h 10.3 km/h 73 % 0.0 mm open2300-1.11 W/m2
16:10 15.2 °C 11.2 °C 1010.7 hPa SE 12.7 km/h 12.7 km/h 77 % 0.0 mm open2300-1.11 W/m2
17:11 14.4 °C 10.2 °C 1010.7 hPa Calm   13.2 km/h 76 % 0.0 mm open2300-1.11 W/m2
18:10 14.2 °C 10.2 °C 1010.7 hPa SE 19.2 km/h 19.2 km/h 77 % 0.0 mm open2300-1.11 W/m2
19:11 13.9 °C 10.1 °C 1010.4 hPa ESE 2.3 km/h 8 km/h 78 % 0.0 mm open2300-1.11 W/m2
20:10 14.1 °C 10.5 °C 1010.4 hPa Calm   2.9 km/h 79 % 0.0 mm open2300-1.11 W/m2
21:11 14.2 °C 10.8 °C 1011.4 hPa Calm   2.9 km/h 80 % 0.0 mm open2300-1.11 W/m2
22:10 14.0 °C 10.9 °C 1010.7 hPa SSE 20.9 km/h 20.9 km/h 82 % 0.0 mm open2300-1.11 W/m2
23:11 14.1 °C 11.1 °C 1010.7 hPa Calm     82 % 0.5 mm open2300-1.11 W/m2
Observations météo à CASSIS
WU-History script by Weather Underground - 1 mb